createdAt,value
2019-04-26T00:01:55.075Z,13.40
2019-04-26T00:04:25.916Z,13.41
2019-04-26T00:06:56.521Z,13.32
2019-04-26T00:09:38.136Z,13.29
2019-04-26T00:12:30.678Z,13.31
2019-04-26T00:15:19.462Z,13.35
2019-04-26T00:17:58.468Z,13.23
2019-04-26T00:20:29.032Z,13.17
2019-04-26T00:22:59.604Z,13.05
2019-04-26T00:25:30.150Z,13.18
2019-04-26T00:28:00.633Z,13.21
2019-04-26T00:30:31.376Z,13.15
2019-04-26T00:33:02.124Z,12.98
2019-04-26T00:35:32.660Z,13.05
2019-04-26T00:38:03.205Z,13.01
2019-04-26T00:40:34.341Z,12.88
2019-04-26T00:43:05.187Z,12.99
2019-04-26T00:45:38.215Z,13.10
2019-04-26T00:48:10.484Z,13.11
2019-04-26T00:50:41.458Z,13.19
2019-04-26T00:53:13.244Z,13.17
2019-04-26T00:55:44.868Z,13.25
2019-04-26T00:58:16.606Z,13.30
2019-04-26T01:00:49.937Z,13.27
2019-04-26T01:03:20.663Z,13.45
2019-04-26T01:05:59.779Z,13.54
2019-04-26T01:08:23.601Z,13.52
2019-04-26T01:10:54.244Z,13.60
2019-04-26T01:13:24.730Z,13.63
2019-04-26T01:15:55.431Z,13.54
2019-04-26T01:18:26.430Z,13.46
2019-04-26T01:21:00.141Z,13.47
2019-04-26T01:23:33.910Z,13.38
2019-04-26T01:26:09.338Z,13.29
2019-04-26T01:29:07.069Z,13.17
2019-04-26T01:31:48.415Z,13.22
2019-04-26T01:34:20.290Z,13.38
2019-04-26T01:36:53.874Z,13.47
2019-04-26T01:39:25.556Z,13.61
2019-04-26T01:42:12.256Z,13.70
2019-04-26T01:44:56.630Z,13.84
2019-04-26T01:47:28.312Z,13.93
2019-04-26T01:49:59.290Z,13.95
2019-04-26T01:52:29.779Z,13.89
2019-04-26T01:55:00.167Z,13.86
2019-04-26T01:57:32.392Z,13.82
2019-04-26T02:00:16.243Z,13.81
2019-04-26T02:02:57.008Z,13.79
2019-04-26T02:05:28.013Z,13.79
2019-04-26T02:07:59.004Z,13.74
2019-04-26T02:10:30.678Z,13.70
2019-04-26T02:13:02.288Z,13.70
2019-04-26T02:15:34.179Z,13.65
2019-04-26T02:18:05.106Z,13.69
2019-04-26T02:21:20.366Z,13.65
2019-04-26T02:23:59.515Z,13.64
2019-04-26T02:26:39.975Z,13.56
2019-04-26T02:29:17.112Z,13.50
2019-04-26T02:31:53.486Z,13.47
2019-04-26T02:34:27.213Z,13.51
2019-04-26T02:37:00.281Z,13.39
2019-04-26T02:39:37.730Z,13.33
2019-04-26T02:42:24.204Z,13.33
2019-04-26T02:48:32.654Z,13.31
2019-04-26T02:51:09.513Z,13.20
2019-04-26T02:54:08.978Z,13.07
2019-04-26T02:56:42.504Z,13.04
2019-04-26T02:59:44.792Z,13.06
2019-04-26T03:02:36.150Z,13.00
2019-04-26T03:05:09.889Z,13.02
2019-04-26T03:07:57.717Z,13.02
2019-04-26T03:10:43.517Z,12.94
2019-04-26T03:13:30.744Z,12.92
2019-04-26T03:16:22.508Z,12.93
2019-04-26T03:19:04.692Z,12.81
2019-04-26T03:22:07.873Z,12.73
2019-04-26T03:24:56.388Z,12.66
2019-04-26T03:28:03.175Z,12.64
2019-04-26T03:30:56.861Z,12.60
2019-04-26T03:34:21.174Z,12.45
2019-04-26T03:37:59.412Z,12.36
2019-04-26T03:41:05.478Z,12.21
2019-04-26T03:44:22.648Z,11.96
2019-04-26T03:46:59.629Z,11.96
2019-04-26T03:50:14.151Z,12.02
2019-04-26T03:53:35.501Z,12.03
2019-04-26T03:56:26.420Z,12.04
2019-04-26T03:59:24.533Z,12.01
2019-04-26T04:02:24.244Z,12.01
2019-04-26T04:05:19.121Z,11.96
2019-04-26T04:07:52.771Z,11.91
2019-04-26T04:10:29.273Z,11.95
2019-04-26T04:13:17.504Z,11.93
2019-04-26T04:15:51.378Z,11.89
2019-04-26T04:18:25.387Z,11.86
2019-04-26T04:21:43.058Z,11.86
2019-04-26T04:24:31.847Z,11.87
2019-04-26T04:27:45.936Z,11.81
2019-04-26T04:31:02.921Z,11.70
2019-04-26T04:34:16.340Z,11.74
2019-04-26T04:36:51.530Z,11.77
2019-04-26T04:40:01.533Z,11.73
2019-04-26T04:42:52.657Z,11.72
2019-04-26T04:46:00.423Z,11.62
2019-04-26T04:49:06.476Z,11.64
2019-04-26T04:52:46.471Z,11.67
2019-04-26T04:56:25.735Z,11.66
2019-04-26T04:59:00.304Z,11.62
2019-04-26T05:02:15.278Z,11.58
2019-04-26T05:05:22.921Z,11.63
2019-04-26T05:08:17.788Z,11.69
2019-04-26T05:11:17.339Z,11.82
2019-04-26T05:14:06.347Z,11.89
2019-04-26T05:17:25.002Z,11.98
2019-04-26T05:20:28.520Z,12.01
2019-04-26T05:23:56.786Z,11.94
2019-04-26T05:27:20.648Z,12.08
2019-04-26T05:31:16.210Z,12.24
2019-04-26T05:34:49.008Z,12.28
2019-04-26T05:37:57.265Z,12.25
2019-04-26T05:41:27.890Z,12.18
2019-04-26T05:44:25.263Z,12.18
2019-04-26T05:47:40.601Z,12.32
2019-04-26T05:51:12.246Z,12.29
2019-04-26T05:54:26.282Z,12.16
2019-04-26T05:57:51.464Z,12.21
2019-04-26T06:00:47.365Z,12.46
2019-04-26T06:04:16.245Z,12.60
2019-04-26T06:07:19.243Z,12.80
2019-04-26T06:10:26.819Z,12.71
2019-04-26T06:13:29.186Z,12.74
2019-04-26T06:16:19.062Z,12.88
2019-04-26T06:19:29.383Z,12.83
2019-04-26T06:22:13.048Z,12.90
2019-04-26T06:25:30.924Z,13.04
2019-04-26T06:28:39.511Z,13.23
2019-04-26T06:31:27.658Z,13.16
2019-04-26T06:34:36.259Z,13.06
2019-04-26T06:37:21.271Z,13.09
2019-04-26T06:40:16.042Z,13.32
2019-04-26T06:43:28.464Z,13.38
2019-04-26T06:46:56.288Z,13.63
2019-04-26T06:50:10.032Z,13.92
2019-04-26T06:52:58.446Z,14.14
2019-04-26T06:55:47.025Z,14.24
2019-04-26T06:59:06.463Z,14.34
2019-04-26T07:01:54.823Z,14.15
2019-04-26T07:05:02.994Z,14.13
2019-04-26T07:08:38.041Z,14.22
2019-04-26T07:12:29.424Z,14.29
2019-04-26T07:15:48.752Z,14.52
2019-04-26T07:19:14.179Z,14.67
2019-04-26T07:22:38.915Z,15.13
2019-04-26T07:26:20.433Z,15.56
2019-04-26T07:29:47.113Z,15.95
2019-04-26T07:32:43.803Z,16.32
2019-04-26T07:35:48.641Z,16.64
2019-04-26T07:39:13.280Z,16.89
2019-04-26T07:42:21.587Z,17.46
2019-04-26T07:45:45.524Z,18.11
2019-04-26T07:49:10.258Z,18.59
2019-04-26T07:52:37.079Z,18.70
2019-04-26T07:55:51.551Z,19.16
2019-04-26T07:59:26.053Z,19.16
2019-04-26T08:02:32.544Z,19.00
2019-04-26T08:05:18.487Z,18.80
2019-04-26T08:07:56.103Z,18.99
2019-04-26T08:10:29.268Z,18.79
2019-04-26T08:13:11.134Z,18.49
2019-04-26T08:16:08.633Z,18.14
2019-04-26T08:18:51.177Z,18.27
2019-04-26T08:21:31.716Z,18.38
2019-04-26T08:24:16.911Z,18.36
2019-04-26T08:27:08.785Z,18.47
2019-04-26T08:29:35.936Z,18.67
2019-04-26T08:32:10.097Z,19.29
2019-04-26T08:34:46.674Z,19.70
2019-04-26T08:37:26.361Z,19.43
2019-04-26T08:39:58.584Z,19.08
2019-04-26T08:42:36.936Z,18.38
2019-04-26T08:45:19.603Z,18.72
2019-04-26T08:48:05.573Z,18.30
2019-04-26T08:50:42.285Z,18.73
2019-04-26T08:53:13.482Z,19.07
2019-04-26T08:55:46.968Z,19.12
2019-04-26T08:58:19.889Z,18.85
2019-04-26T09:01:00.060Z,18.73
2019-04-26T09:03:55.025Z,18.33
2019-04-26T09:06:31.099Z,17.87
2019-04-26T09:09:14.303Z,17.29
2019-04-26T09:11:44.314Z,17.38
2019-04-26T09:14:15.638Z,17.37
2019-04-26T09:16:50.414Z,17.46
2019-04-26T09:19:18.592Z,17.47
2019-04-26T09:22:12.911Z,17.20
2019-04-26T09:25:01.037Z,16.89
2019-04-26T09:27:35.951Z,16.82
2019-04-26T09:30:14.180Z,16.73
2019-04-26T09:32:49.150Z,16.55
2019-04-26T09:35:19.621Z,16.48
2019-04-26T09:37:50.133Z,16.27
2019-04-26T09:40:22.671Z,16.15
2019-04-26T09:43:15.023Z,16.20
2019-04-26T09:46:14.551Z,16.12
2019-04-26T09:49:13.154Z,16.08
2019-04-26T09:51:43.573Z,16.00
2019-04-26T09:54:16.796Z,15.96
2019-04-26T09:56:47.261Z,15.84
2019-04-26T09:59:18.346Z,15.78
2019-04-26T10:01:48.728Z,15.57
2019-04-26T10:04:19.301Z,15.47
2019-04-26T10:06:49.689Z,15.36
2019-04-26T10:09:21.157Z,15.24
2019-04-26T10:11:56.131Z,15.15
2019-04-26T10:14:42.784Z,15.13
2019-04-26T10:17:19.478Z,14.98
2019-04-26T10:19:51.710Z,14.95
2019-04-26T10:22:23.197Z,15.01
2019-04-26T10:24:53.701Z,14.72
2019-04-26T10:27:24.084Z,14.65
2019-04-26T10:29:56.133Z,14.69
2019-04-26T10:32:27.867Z,14.66
2019-04-26T10:34:58.399Z,14.68
2019-04-26T10:37:38.943Z,14.58
2019-04-26T10:40:01.072Z,14.60
2019-04-26T10:42:31.769Z,14.53
2019-04-26T10:45:02.272Z,14.49
2019-04-26T10:47:34.366Z,14.36
2019-04-26T10:50:05.290Z,14.25
2019-04-26T10:52:53.110Z,14.12
2019-04-26T10:55:41.226Z,14.11
2019-04-26T10:58:36.325Z,14.23
2019-04-26T11:01:11.646Z,14.29
2019-04-26T11:03:42.176Z,14.23
2019-04-26T11:06:12.752Z,14.25
2019-04-26T11:08:43.130Z,14.23
2019-04-26T11:11:13.672Z,13.88
2019-04-26T11:13:44.107Z,13.83
2019-04-26T11:16:14.514Z,13.96
2019-04-26T11:18:44.974Z,14.05
2019-04-26T11:21:16.356Z,13.91
2019-04-26T11:23:49.933Z,13.87
2019-04-26T11:26:19.761Z,13.69
2019-04-26T11:28:51.308Z,13.56
2019-04-26T11:31:23.349Z,13.14
2019-04-26T11:34:04.646Z,13.15
2019-04-26T11:36:26.574Z,12.90
2019-04-26T11:38:57.175Z,12.90
2019-04-26T11:41:27.629Z,12.89
2019-04-26T11:43:58.190Z,12.91
2019-04-26T11:46:30.070Z,13.07
2019-04-26T11:49:03.248Z,13.18
2019-04-26T11:51:33.009Z,13.23
2019-04-26T11:54:03.511Z,13.17
2019-04-26T11:56:34.105Z,13.15
2019-04-26T11:59:06.361Z,13.28
2019-04-26T12:01:40.202Z,13.36
2019-04-26T12:04:37.093Z,13.49
2019-04-26T12:07:17.146Z,13.51
2019-04-26T12:09:48.707Z,13.50
2019-04-26T12:12:19.147Z,13.44
2019-04-26T12:14:49.550Z,13.40
2019-04-26T12:17:19.977Z,13.33
2019-04-26T12:19:52.276Z,13.23
2019-04-26T12:22:22.563Z,13.14
2019-04-26T12:24:52.990Z,13.02
2019-04-26T12:27:26.566Z,12.96
2019-04-26T12:29:55.614Z,12.91
2019-04-26T12:32:26.114Z,12.80
2019-04-26T12:34:56.571Z,12.78
2019-04-26T12:37:26.892Z,12.54
2019-04-26T12:39:57.356Z,12.56
2019-04-26T12:42:27.786Z,12.57
2019-04-26T12:45:16.727Z,12.54
2019-04-26T12:47:51.393Z,12.60
2019-04-26T12:50:21.872Z,12.64
2019-04-26T12:52:55.528Z,12.61
2019-04-26T12:55:24.517Z,12.52
2019-04-26T12:57:54.978Z,12.27
2019-04-26T13:00:28.589Z,12.17
2019-04-26T13:03:00.830Z,12.00
2019-04-26T13:05:31.248Z,11.95
2019-04-26T13:08:01.574Z,11.76
2019-04-26T13:10:50.933Z,11.58
2019-04-26T13:13:28.379Z,11.48
2019-04-26T13:16:11.511Z,11.34
2019-04-26T13:18:45.339Z,11.34
2019-04-26T13:21:14.071Z,11.28
2019-04-26T13:23:44.515Z,11.41
2019-04-26T13:26:15.012Z,11.42
2019-04-26T13:28:45.464Z,11.34
2019-04-26T13:31:15.915Z,11.31
2019-04-26T13:33:46.344Z,11.09
2019-04-26T13:36:16.828Z,11.01
2019-04-26T13:38:47.243Z,10.87
2019-04-26T13:41:17.711Z,10.75
2019-04-26T13:43:48.143Z,10.66
2019-04-26T13:46:43.382Z,10.36
2019-04-26T13:49:22.587Z,10.20
2019-04-26T13:51:53.133Z,10.18
2019-04-26T13:54:23.597Z,10.19
2019-04-26T13:56:54.014Z,10.11
2019-04-26T13:59:24.421Z,9.98
2019-04-26T14:01:54.863Z,9.87
2019-04-26T14:04:25.227Z,9.85
2019-04-26T14:06:55.576Z,9.77
2019-04-26T14:09:25.963Z,9.83
2019-04-26T14:11:58.027Z,9.84
2019-04-26T14:14:30.253Z,9.81
2019-04-26T14:17:00.718Z,9.75
2019-04-26T14:19:31.142Z,9.72
2019-04-26T14:22:03.231Z,9.76
2019-04-26T14:24:39.118Z,9.72
2019-04-26T14:27:19.425Z,9.81
2019-04-26T14:29:49.842Z,9.91
2019-04-26T14:32:22.867Z,10.04
2019-04-26T14:34:52.451Z,10.18
2019-04-26T14:37:22.971Z,10.15
2019-04-26T14:39:55.335Z,10.15
2019-04-26T14:42:33.741Z,10.06
2019-04-26T14:44:57.577Z,10.00
2019-04-26T14:47:30.394Z,9.94
2019-04-26T14:50:13.089Z,9.84
2019-04-26T14:52:32.240Z,9.74
2019-04-26T14:55:02.693Z,9.67
2019-04-26T14:57:33.941Z,9.62
2019-04-26T15:00:05.200Z,9.63
2019-04-26T15:03:00.555Z,9.58
2019-04-26T15:05:54.029Z,9.57
2019-04-26T15:08:24.585Z,9.51
2019-04-26T15:11:00.785Z,9.52
2019-04-26T15:13:27.323Z,9.40
2019-04-26T15:15:58.131Z,9.36
2019-04-26T15:18:29.236Z,9.29
2019-04-26T15:21:00.883Z,9.17
2019-04-26T15:23:32.881Z,9.15
2019-04-26T15:26:03.531Z,9.20
2019-04-26T15:28:33.960Z,9.19
2019-04-26T15:31:04.307Z,9.15
2019-04-26T15:33:36.097Z,9.13
2019-04-26T15:36:10.583Z,9.17
2019-04-26T15:38:41.677Z,9.17
2019-04-26T15:41:34.276Z,9.09
2019-04-26T15:44:24.871Z,9.11
2019-04-26T15:47:16.975Z,9.07
2019-04-26T15:49:54.015Z,9.06
2019-04-26T15:52:24.399Z,9.09
2019-04-26T15:54:58.946Z,9.08
2019-04-26T15:57:30.902Z,9.10
2019-04-26T15:59:59.242Z,9.12
2019-04-26T16:02:29.644Z,9.11
2019-04-26T16:05:00.038Z,9.14
2019-04-26T16:07:30.507Z,9.12
2019-04-26T16:10:00.984Z,9.08
2019-04-26T16:12:32.082Z,9.02
2019-04-26T16:15:06.398Z,9.04
2019-04-26T16:17:36.191Z,9.05
2019-04-26T16:20:07.820Z,9.07
2019-04-26T16:22:38.167Z,9.04
2019-04-26T16:25:09.025Z,9.03
2019-04-26T16:27:39.439Z,9.05
2019-04-26T16:30:28.375Z,9.04
2019-04-26T16:33:15.847Z,8.98
2019-04-26T16:35:46.352Z,9.05
2019-04-26T16:38:33.226Z,9.11
2019-04-26T16:41:04.310Z,9.17
2019-04-26T16:43:40.264Z,9.13
2019-04-26T16:46:07.457Z,9.06
2019-04-26T16:48:37.900Z,9.00
2019-04-26T16:51:08.776Z,9.00
2019-04-26T16:53:58.491Z,8.98
2019-04-26T16:56:11.679Z,8.99
2019-04-26T16:58:45.239Z,8.95
2019-04-26T17:01:15.087Z,8.98
2019-04-26T17:03:48.127Z,9.00
2019-04-26T17:06:18.261Z,9.06
2019-04-26T17:08:51.558Z,9.24
2019-04-26T17:11:22.787Z,9.40
2019-04-26T17:13:56.912Z,9.38
2019-04-26T17:16:25.681Z,9.25
2019-04-26T17:18:59.541Z,9.36
2019-04-26T17:21:30.109Z,9.30
2019-04-26T17:24:19.472Z,9.37
2019-04-26T17:26:57.195Z,9.43
2019-04-26T17:29:27.535Z,9.44
2019-04-26T17:31:58.005Z,9.47
2019-04-26T17:34:30.265Z,9.48
2019-04-26T17:37:02.382Z,9.49
2019-04-26T17:39:32.972Z,9.51
2019-04-26T17:42:03.438Z,9.42
2019-04-26T17:44:34.160Z,9.39
2019-04-26T17:47:04.730Z,9.37
2019-04-26T17:49:38.351Z,9.36
2019-04-26T17:52:07.404Z,9.41
2019-04-26T17:54:48.995Z,9.38
2019-04-26T17:57:14.443Z,9.38
2019-04-26T17:59:47.802Z,9.46
2019-04-26T18:02:25.881Z,9.46
2019-04-26T18:04:58.198Z,9.39
2019-04-26T18:07:37.553Z,9.27
2019-04-26T18:09:52.510Z,9.20
2019-04-26T18:12:22.914Z,9.18
2019-04-26T18:14:53.213Z,9.17
2019-04-26T18:17:33.061Z,9.14
2019-04-26T18:20:13.522Z,9.11
2019-04-26T18:22:47.696Z,9.09
2019-04-26T18:25:18.185Z,9.06
2019-04-26T18:27:48.683Z,9.02
2019-04-26T18:30:19.354Z,8.99
2019-04-26T18:32:49.850Z,8.97
2019-04-26T18:35:20.288Z,9.01
2019-04-26T18:37:50.609Z,9.03
2019-04-26T18:40:23.061Z,9.06
2019-04-26T18:42:55.083Z,8.98
2019-04-26T18:45:29.688Z,8.98
2019-04-26T18:48:01.464Z,8.95
2019-04-26T18:50:32.853Z,8.93
2019-04-26T18:53:20.387Z,8.92
2019-04-26T18:55:53.449Z,8.89
2019-04-26T18:58:23.975Z,8.91
2019-04-26T19:00:57.339Z,8.90
2019-04-26T19:03:30.153Z,8.92
2019-04-26T19:06:02.575Z,8.88
2019-04-26T19:08:43.643Z,8.84
2019-04-26T19:11:03.529Z,8.83
2019-04-26T19:13:56.947Z,8.84
2019-04-26T19:16:41.166Z,8.83
2019-04-26T19:19:39.276Z,8.78
2019-04-26T19:22:13.948Z,8.72
2019-04-26T19:24:42.329Z,8.70
2019-04-26T19:27:12.678Z,8.72
2019-04-26T19:29:43.377Z,8.68
2019-04-26T19:32:13.852Z,8.64
2019-04-26T19:34:44.288Z,8.59
2019-04-26T19:37:14.671Z,8.56
2019-04-26T19:39:45.128Z,8.58
2019-04-26T19:42:15.623Z,8.53
2019-04-26T19:44:49.435Z,8.50
2019-04-26T19:47:43.954Z,8.44
2019-04-26T19:50:30.619Z,8.48
2019-04-26T19:53:10.305Z,8.37
2019-04-26T19:56:05.375Z,8.38
2019-04-26T19:58:36.550Z,8.35
2019-04-26T20:01:06.961Z,8.32
2019-04-26T20:03:37.394Z,8.35
2019-04-26T20:06:07.735Z,8.30
2019-04-26T20:08:43.939Z,8.32
2019-04-26T20:11:12.767Z,8.30
2019-04-26T20:13:42.781Z,8.29
2019-04-26T20:16:14.622Z,8.24
2019-04-26T20:18:44.992Z,8.20
2019-04-26T20:21:15.653Z,8.22
2019-04-26T20:23:47.574Z,8.25
2019-04-26T20:26:18.199Z,8.27
2019-04-26T20:28:48.652Z,8.28
2019-04-26T20:31:51.944Z,8.27
2019-04-26T20:34:22.132Z,8.20
2019-04-26T20:36:52.603Z,8.12
2019-04-26T20:39:24.080Z,8.13
2019-04-26T20:42:01.081Z,8.06
2019-04-26T20:44:28.872Z,8.00
2019-04-26T20:46:59.829Z,7.96
2019-04-26T20:49:31.995Z,7.97
2019-04-26T20:52:02.391Z,7.99
2019-04-26T20:54:32.733Z,7.95
2019-04-26T20:57:03.286Z,7.96
2019-04-26T20:59:33.576Z,7.99
2019-04-26T21:02:08.151Z,8.05
2019-04-26T21:04:38.467Z,8.13
2019-04-26T21:07:11.334Z,8.16
2019-04-26T21:09:43.399Z,8.23
2019-04-26T21:12:15.862Z,8.26
2019-04-26T21:14:45.696Z,8.30
2019-04-26T21:17:19.350Z,8.32
2019-04-26T21:19:49.894Z,8.31
2019-04-26T21:22:25.483Z,8.31
2019-04-26T21:24:58.490Z,8.32
2019-04-26T21:28:02.446Z,8.32
2019-04-26T21:30:39.439Z,8.35
2019-04-26T21:33:28.621Z,8.38
2019-04-26T21:36:29.539Z,8.36
2019-04-26T21:39:07.419Z,8.40
2019-04-26T21:41:40.422Z,8.40
2019-04-26T21:44:12.306Z,8.36
2019-04-26T21:46:43.478Z,8.42
2019-04-26T21:49:20.376Z,8.41
2019-04-26T21:51:51.165Z,8.38
2019-04-26T21:54:19.417Z,8.40
2019-04-26T21:56:50.013Z,8.45
2019-04-26T21:59:20.359Z,8.43
2019-04-26T22:01:53.879Z,8.34
2019-04-26T22:04:24.433Z,8.37
2019-04-26T22:06:55.646Z,8.38
2019-04-26T22:09:48.026Z,8.38
2019-04-26T22:12:18.570Z,8.43
2019-04-26T22:14:58.275Z,8.46
2019-04-26T22:17:40.618Z,8.48
2019-04-26T22:20:18.765Z,8.47
2019-04-26T22:23:11.521Z,8.52
2019-04-26T22:25:42.190Z,8.50
2019-04-26T22:28:13.120Z,8.51
2019-04-26T22:30:43.664Z,8.51
2019-04-26T22:33:14.068Z,8.54
2019-04-26T22:35:44.424Z,8.54
2019-04-26T22:38:17.471Z,8.54
2019-04-26T22:40:48.523Z,8.56
2019-04-26T22:43:37.869Z,8.56
2019-04-26T22:46:45.165Z,8.53
2019-04-26T22:49:05.924Z,8.51
2019-04-26T22:51:37.313Z,8.49
2019-04-26T22:54:07.780Z,8.45
2019-04-26T22:56:38.417Z,8.49
2019-04-26T22:59:09.062Z,8.50
2019-04-26T23:01:44.801Z,8.57
2019-04-26T23:04:16.238Z,8.59
2019-04-26T23:06:46.794Z,8.57
2019-04-26T23:09:17.330Z,8.55
2019-04-26T23:11:53.862Z,8.53
2019-04-26T23:14:43.968Z,8.54
2019-04-26T23:17:34.758Z,8.57
2019-04-26T23:20:23.388Z,8.55
2019-04-26T23:23:05.201Z,8.51
2019-04-26T23:25:36.522Z,8.52
2019-04-26T23:28:06.988Z,8.58
2019-04-26T23:30:37.496Z,8.61
2019-04-26T23:33:07.907Z,8.59
2019-04-26T23:35:43.498Z,8.57
2019-04-26T23:38:10.523Z,8.61
2019-04-26T23:40:42.983Z,8.64
2019-04-26T23:43:13.512Z,8.64
2019-04-26T23:45:48.305Z,8.64
2019-04-26T23:48:16.082Z,8.60
2019-04-26T23:50:46.500Z,8.57
2019-04-26T23:53:20.207Z,8.59
2019-04-26T23:55:49.130Z,8.62
2019-04-26T23:58:19.581Z,8.58
